KFCM

Flying Cloud Airport

Minneapolis, Minnesota, USA
METAR KFCM 272353Z 12007KT 10SM CLR 32/17 A2979 RMK AO2 SLP081 T03220167 10328 20294 56018
Observed Flight Rules
May-27 @ 23:53 UTC (an hour ago) Visual Flight Rules
Wind Visibility Clouds
120° at 7 knots 10 miles
  • Clear skies
Temperatures Readings
Current 32°C / 90°F
Dewpoint 17°C / 63°F
Humidity 41%
Altimeter 29.79" Hg
Pressure 1008.1 hPa
Elevation 280
METAR KFCM 272353Z 12007KT 10SM CLR 32/17 A2979 RMK AO2 SLP081 T03220167 10328 20294 56018
Observed Flight Rules
May-27 @ 23:53 UTC
(an hour ago)
VFR
Wind Visibility
120° at 7 knots 10 miles
Clouds
  • Clear skies
Temperature Dewpoint
32°C / 90°F 17°C / 63°F
Humidity Altimeter Pressure
41% 29.79" Hg 1008.1 hPa